sensor_id;sensor_type;location;lat;lon;timestamp;temperature;humidity
65985;HTU21D;52748;51.112;5.880;2023-07-08T00:00:27;26.04;46.99
65985;HTU21D;52748;51.112;5.880;2023-07-08T00:02:53;26.02;47.03
65985;HTU21D;52748;51.112;5.880;2023-07-08T00:05:21;26.02;47.06
65985;HTU21D;52748;51.112;5.880;2023-07-08T00:07:47;26.01;47.11
65985;HTU21D;52748;51.112;5.880;2023-07-08T00:10:20;26.01;47.13
65985;HTU21D;52748;51.112;5.880;2023-07-08T00:12:49;26.01;47.15
65985;HTU21D;52748;51.112;5.880;2023-07-08T00:15:16;26.01;47.16
65985;HTU21D;52748;51.112;5.880;2023-07-08T00:17:43;25.99;47.15
65985;HTU21D;52748;51.112;5.880;2023-07-08T00:20:17;25.98;47.18
65985;HTU21D;52748;51.112;5.880;2023-07-08T00:22:43;26.01;47.18
65985;HTU21D;52748;51.112;5.880;2023-07-08T00:25:13;25.99;47.22
65985;HTU21D;52748;51.112;5.880;2023-07-08T00:27:42;26.01;47.15
65985;HTU21D;52748;51.112;5.880;2023-07-08T00:30:27;26.02;47.12
65985;HTU21D;52748;51.112;5.880;2023-07-08T00:32:54;26.03;47.11
65985;HTU21D;52748;51.112;5.880;2023-07-08T00:35:36;26.02;47.18
65985;HTU21D;52748;51.112;5.880;2023-07-08T00:38:14;26.02;47.18
65985;HTU21D;52748;51.112;5.880;2023-07-08T00:40:50;26.03;47.18
65985;HTU21D;52748;51.112;5.880;2023-07-08T00:43:17;26.03;47.17
65985;HTU21D;52748;51.112;5.880;2023-07-08T00:45:53;25.99;47.25
65985;HTU21D;52748;51.112;5.880;2023-07-08T00:48:29;25.99;47.29
65985;HTU21D;52748;51.112;5.880;2023-07-08T00:50:56;26.01;47.33
65985;HTU21D;52748;51.112;5.880;2023-07-08T00:53:32;26.01;47.32
65985;HTU21D;52748;51.112;5.880;2023-07-08T00:56:06;26.01;47.34
65985;HTU21D;52748;51.112;5.880;2023-07-08T00:58:41;25.99;47.39
65985;HTU21D;52748;51.112;5.880;2023-07-08T01:01:10;25.98;47.41
65985;HTU21D;52748;51.112;5.880;2023-07-08T01:03:54;25.99;47.42
65985;HTU21D;52748;51.112;5.880;2023-07-08T01:06:25;25.98;47.44
65985;HTU21D;52748;51.112;5.880;2023-07-08T01:09:02;25.99;47.39
65985;HTU21D;52748;51.112;5.880;2023-07-08T01:11:32;25.98;47.41
65985;HTU21D;52748;51.112;5.880;2023-07-08T01:14:01;25.98;47.48
65985;HTU21D;52748;51.112;5.880;2023-07-08T01:16:28;25.97;47.52
65985;HTU21D;52748;51.112;5.880;2023-07-08T01:18:55;25.96;47.54
65985;HTU21D;52748;51.112;5.880;2023-07-08T01:24:03;25.99;47.56
65985;HTU21D;52748;51.112;5.880;2023-07-08T01:26:33;26.01;47.53
65985;HTU21D;52748;51.112;5.880;2023-07-08T01:29:00;26.02;47.50
65985;HTU21D;52748;51.112;5.880;2023-07-08T01:31:27;26.01;47.48
65985;HTU21D;52748;51.112;5.880;2023-07-08T01:33:53;26.01;47.49
65985;HTU21D;52748;51.112;5.880;2023-07-08T01:36:19;25.99;47.55
65985;HTU21D;52748;51.112;5.880;2023-07-08T01:38:46;25.99;47.53
65985;HTU21D;52748;51.112;5.880;2023-07-08T01:41:15;26.01;47.54
65985;HTU21D;52748;51.112;5.880;2023-07-08T01:43:41;25.99;47.53
65985;HTU21D;52748;51.112;5.880;2023-07-08T01:46:19;25.99;47.54
65985;HTU21D;52748;51.112;5.880;2023-07-08T01:48:50;25.97;47.60
65985;HTU21D;52748;51.112;5.880;2023-07-08T01:51:17;25.96;47.65
65985;HTU21D;52748;51.112;5.880;2023-07-08T01:53:43;25.98;47.64
65985;HTU21D;52748;51.112;5.880;2023-07-08T01:56:13;25.96;47.63
65985;HTU21D;52748;51.112;5.880;2023-07-08T01:58:39;25.97;47.67
65985;HTU21D;52748;51.112;5.880;2023-07-08T02:01:05;25.96;47.70
65985;HTU21D;52748;51.112;5.880;2023-07-08T02:03:31;25.96;47.67
65985;HTU21D;52748;51.112;5.880;2023-07-08T02:05:57;25.96;47.62
65985;HTU21D;52748;51.112;5.880;2023-07-08T02:08:23;25.97;47.63
65985;HTU21D;52748;51.112;5.880;2023-07-08T02:10:55;25.96;47.70
65985;HTU21D;52748;51.112;5.880;2023-07-08T02:13:22;25.95;47.79
65985;HTU21D;52748;51.112;5.880;2023-07-08T02:15:49;25.96;47.82
65985;HTU21D;52748;51.112;5.880;2023-07-08T02:18:15;25.95;47.78
65985;HTU21D;52748;51.112;5.880;2023-07-08T02:20:45;25.95;47.82
65985;HTU21D;52748;51.112;5.880;2023-07-08T02:23:11;25.94;47.83
65985;HTU21D;52748;51.112;5.880;2023-07-08T02:25:37;25.94;47.86
65985;HTU21D;52748;51.112;5.880;2023-07-08T02:28:03;25.94;47.86
65985;HTU21D;52748;51.112;5.880;2023-07-08T02:30:29;25.95;47.82
65985;HTU21D;52748;51.112;5.880;2023-07-08T02:32:55;25.95;47.85
65985;HTU21D;52748;51.112;5.880;2023-07-08T02:35:28;25.94;47.86
65985;HTU21D;52748;51.112;5.880;2023-07-08T02:37:55;25.94;47.89
65985;HTU21D;52748;51.112;5.880;2023-07-08T02:40:22;25.93;47.92
65985;HTU21D;52748;51.112;5.880;2023-07-08T02:42:48;25.92;47.96
65985;HTU21D;52748;51.112;5.880;2023-07-08T02:45:15;25.94;47.96
65985;HTU21D;52748;51.112;5.880;2023-07-08T02:47:41;25.92;47.98
65985;HTU21D;52748;51.112;5.880;2023-07-08T02:50:08;25.92;48.02
65985;HTU21D;52748;51.112;5.880;2023-07-08T02:52:35;25.93;47.99
65985;HTU21D;52748;51.112;5.880;2023-07-08T02:55:01;25.92;47.96
65985;HTU21D;52748;51.112;5.880;2023-07-08T02:57:27;25.92;47.96
65985;HTU21D;52748;51.112;5.880;2023-07-08T02:59:52;25.93;48.01
65985;HTU21D;52748;51.112;5.880;2023-07-08T03:02:18;25.92;48.02
65985;HTU21D;52748;51.112;5.880;2023-07-08T03:04:44;25.92;48.06
65985;HTU21D;52748;51.112;5.880;2023-07-08T03:07:11;25.92;47.99
65985;HTU21D;52748;51.112;5.880;2023-07-08T03:09:38;25.93;47.91
65985;HTU21D;52748;51.112;5.880;2023-07-08T03:12:09;25.93;47.92
65985;HTU21D;52748;51.112;5.880;2023-07-08T03:14:35;25.92;48.00
65985;HTU21D;52748;51.112;5.880;2023-07-08T03:17:02;25.92;48.08
65985;HTU21D;52748;51.112;5.880;2023-07-08T03:19:28;25.92;48.08
65985;HTU21D;52748;51.112;5.880;2023-07-08T03:21:54;25.91;48.08
65985;HTU21D;52748;51.112;5.880;2023-07-08T03:24:20;25.91;48.11
65985;HTU21D;52748;51.112;5.880;2023-07-08T03:26:47;25.90;48.15
65985;HTU21D;52748;51.112;5.880;2023-07-08T03:29:18;25.89;48.16
65985;HTU21D;52748;51.112;5.880;2023-07-08T03:31:46;25.91;48.14
65985;HTU21D;52748;51.112;5.880;2023-07-08T03:34:13;25.88;48.13
65985;HTU21D;52748;51.112;5.880;2023-07-08T03:36:47;25.90;48.15
65985;HTU21D;52748;51.112;5.880;2023-07-08T03:39:19;25.91;48.07
65985;HTU21D;52748;51.112;5.880;2023-07-08T03:41:45;25.91;48.08
65985;HTU21D;52748;51.112;5.880;2023-07-08T03:44:12;25.90;48.15
65985;HTU21D;52748;51.112;5.880;2023-07-08T03:46:38;25.90;48.18
65985;HTU21D;52748;51.112;5.880;2023-07-08T03:49:06;25.89;48.21
65985;HTU21D;52748;51.112;5.880;2023-07-08T03:51:35;25.89;48.24
65985;HTU21D;52748;51.112;5.880;2023-07-08T03:54:03;25.92;48.12
65985;HTU21D;52748;51.112;5.880;2023-07-08T03:56:32;25.90;48.15
65985;HTU21D;52748;51.112;5.880;2023-07-08T03:58:58;25.90;48.12
65985;HTU21D;52748;51.112;5.880;2023-07-08T04:01:25;25.90;48.11
65985;HTU21D;52748;51.112;5.880;2023-07-08T04:03:55;25.89;48.12
65985;HTU21D;52748;51.112;5.880;2023-07-08T04:06:22;25.90;48.14
65985;HTU21D;52748;51.112;5.880;2023-07-08T04:08:48;25.91;48.11
65985;HTU21D;52748;51.112;5.880;2023-07-08T04:11:23;25.90;48.10
65985;HTU21D;52748;51.112;5.880;2023-07-08T04:13:49;25.90;48.10
65985;HTU21D;52748;51.112;5.880;2023-07-08T04:16:23;25.91;48.10
65985;HTU21D;52748;51.112;5.880;2023-07-08T04:18:50;25.89;48.12
65985;HTU21D;52748;51.112;5.880;2023-07-08T04:21:19;25.89;48.15
65985;HTU21D;52748;51.112;5.880;2023-07-08T04:23:45;25.88;48.19
65985;HTU21D;52748;51.112;5.880;2023-07-08T04:26:12;25.87;48.24
65985;HTU21D;52748;51.112;5.880;2023-07-08T04:28:38;25.87;48.31
65985;HTU21D;52748;51.112;5.880;2023-07-08T04:31:04;25.88;48.28
65985;HTU21D;52748;51.112;5.880;2023-07-08T04:33:30;25.89;48.24
65985;HTU21D;52748;51.112;5.880;2023-07-08T04:35:56;25.90;48.26
65985;HTU21D;52748;51.112;5.880;2023-07-08T04:38:24;25.88;48.27
65985;HTU21D;52748;51.112;5.880;2023-07-08T04:40:52;25.88;48.29
65985;HTU21D;52748;51.112;5.880;2023-07-08T04:43:19;25.88;48.31
65985;HTU21D;52748;51.112;5.880;2023-07-08T04:45:49;25.86;48.33
65985;HTU21D;52748;51.112;5.880;2023-07-08T04:48:19;25.86;48.34
65985;HTU21D;52748;51.112;5.880;2023-07-08T04:50:49;25.84;48.39
65985;HTU21D;52748;51.112;5.880;2023-07-08T04:53:15;25.87;48.32
65985;HTU21D;52748;51.112;5.880;2023-07-08T04:55:46;25.87;48.28
65985;HTU21D;52748;51.112;5.880;2023-07-08T04:58:12;25.87;48.28
65985;HTU21D;52748;51.112;5.880;2023-07-08T05:00:38;25.87;48.25
65985;HTU21D;52748;51.112;5.880;2023-07-08T05:03:04;25.88;48.22
65985;HTU21D;52748;51.112;5.880;2023-07-08T05:05:30;25.87;48.31
65985;HTU21D;52748;51.112;5.880;2023-07-08T05:07:56;25.84;48.34
65985;HTU21D;52748;51.112;5.880;2023-07-08T05:10:22;25.87;48.41
65985;HTU21D;52748;51.112;5.880;2023-07-08T05:12:48;25.88;48.42
65985;HTU21D;52748;51.112;5.880;2023-07-08T05:15:15;25.86;48.38
65985;HTU21D;52748;51.112;5.880;2023-07-08T05:17:41;25.86;48.37
65985;HTU21D;52748;51.112;5.880;2023-07-08T05:20:10;25.89;48.45
65985;HTU21D;52748;51.112;5.880;2023-07-08T05:22:38;25.90;48.46
65985;HTU21D;52748;51.112;5.880;2023-07-08T05:25:05;25.91;48.65
65985;HTU21D;52748;51.112;5.880;2023-07-08T05:27:31;25.92;48.89
65985;HTU21D;52748;51.112;5.880;2023-07-08T05:30:00;25.93;48.79
65985;HTU21D;52748;51.112;5.880;2023-07-08T05:32:26;25.93;48.73
65985;HTU21D;52748;51.112;5.880;2023-07-08T05:34:53;25.93;48.65
65985;HTU21D;52748;51.112;5.880;2023-07-08T05:37:19;25.95;48.51
65985;HTU21D;52748;51.112;5.880;2023-07-08T05:39:49;25.95;48.49
65985;HTU21D;52748;51.112;5.880;2023-07-08T05:42:15;25.95;48.45
65985;HTU21D;52748;51.112;5.880;2023-07-08T05:44:41;25.97;48.65
65985;HTU21D;52748;51.112;5.880;2023-07-08T05:47:06;25.99;48.62
65985;HTU21D;52748;51.112;5.880;2023-07-08T05:49:32;25.98;48.46
65985;HTU21D;52748;51.112;5.880;2023-07-08T05:51:58;25.99;48.47
65985;HTU21D;52748;51.112;5.880;2023-07-08T05:54:24;26.01;48.68
65985;HTU21D;52748;51.112;5.880;2023-07-08T05:56:50;26.02;48.78
65985;HTU21D;52748;51.112;5.880;2023-07-08T05:59:16;26.02;48.78
65985;HTU21D;52748;51.112;5.880;2023-07-08T06:01:42;26.04;48.66
65985;HTU21D;52748;51.112;5.880;2023-07-08T06:04:07;26.05;48.62
65985;HTU21D;52748;51.112;5.880;2023-07-08T06:06:33;26.05;49.11
65985;HTU21D;52748;51.112;5.880;2023-07-08T06:08:59;26.06;49.31
65985;HTU21D;52748;51.112;5.880;2023-07-08T06:11:25;26.05;49.40
65985;HTU21D;52748;51.112;5.880;2023-07-08T06:13:51;26.06;49.45
65985;HTU21D;52748;51.112;5.880;2023-07-08T06:16:20;26.08;49.38
65985;HTU21D;52748;51.112;5.880;2023-07-08T06:18:46;26.08;49.45
65985;HTU21D;52748;51.112;5.880;2023-07-08T06:21:12;26.09;49.14
65985;HTU21D;52748;51.112;5.880;2023-07-08T06:23:37;26.10;49.00
65985;HTU21D;52748;51.112;5.880;2023-07-08T06:26:03;26.11;48.77
65985;HTU21D;52748;51.112;5.880;2023-07-08T06:28:29;26.12;48.53
65985;HTU21D;52748;51.112;5.880;2023-07-08T06:30:55;26.12;48.50
65985;HTU21D;52748;51.112;5.880;2023-07-08T06:33:20;26.13;48.44
65985;HTU21D;52748;51.112;5.880;2023-07-08T06:35:46;26.15;48.40
65985;HTU21D;52748;51.112;5.880;2023-07-08T06:38:12;26.15;48.48
65985;HTU21D;52748;51.112;5.880;2023-07-08T06:40:38;26.17;48.51
65985;HTU21D;52748;51.112;5.880;2023-07-08T06:43:04;26.17;48.53
65985;HTU21D;52748;51.112;5.880;2023-07-08T06:45:36;26.20;48.42
65985;HTU21D;52748;51.112;5.880;2023-07-08T06:48:02;26.20;48.41
65985;HTU21D;52748;51.112;5.880;2023-07-08T06:50:28;26.21;48.44
65985;HTU21D;52748;51.112;5.880;2023-07-08T06:52:54;26.23;48.21
65985;HTU21D;52748;51.112;5.880;2023-07-08T06:55:20;26.24;48.05
65985;HTU21D;52748;51.112;5.880;2023-07-08T06:57:46;26.27;48.07
65985;HTU21D;52748;51.112;5.880;2023-07-08T07:00:12;26.28;47.99
65985;HTU21D;52748;51.112;5.880;2023-07-08T07:02:38;26.31;47.71
65985;HTU21D;52748;51.112;5.880;2023-07-08T07:05:05;26.36;47.31
65985;HTU21D;52748;51.112;5.880;2023-07-08T07:07:33;26.41;46.93
65985;HTU21D;52748;51.112;5.880;2023-07-08T07:10:00;26.45;46.99
65985;HTU21D;52748;51.112;5.880;2023-07-08T07:12:26;26.46;47.06
65985;HTU21D;52748;51.112;5.880;2023-07-08T07:14:52;26.45;46.83
65985;HTU21D;52748;51.112;5.880;2023-07-08T07:17:21;26.45;46.72
65985;HTU21D;52748;51.112;5.880;2023-07-08T07:19:47;26.47;46.80
65985;HTU21D;52748;51.112;5.880;2023-07-08T07:22:14;26.50;47.14
65985;HTU21D;52748;51.112;5.880;2023-07-08T07:24:40;26.54;46.97
65985;HTU21D;52748;51.112;5.880;2023-07-08T07:27:06;26.61;46.76
65985;HTU21D;52748;51.112;5.880;2023-07-08T07:32:09;26.71;46.27
65985;HTU21D;52748;51.112;5.880;2023-07-08T07:34:35;26.75;46.25
65985;HTU21D;52748;51.112;5.880;2023-07-08T07:37:02;26.78;46.21
65985;HTU21D;52748;51.112;5.880;2023-07-08T07:39:27;26.79;46.19
65985;HTU21D;52748;51.112;5.880;2023-07-08T07:41:54;26.81;46.23
65985;HTU21D;52748;51.112;5.880;2023-07-08T07:44:20;26.83;46.31
65985;HTU21D;52748;51.112;5.880;2023-07-08T07:46:46;26.82;46.17
65985;HTU21D;52748;51.112;5.880;2023-07-08T07:49:13;26.82;46.32
65985;HTU21D;52748;51.112;5.880;2023-07-08T07:51:39;26.83;46.07
65985;HTU21D;52748;51.112;5.880;2023-07-08T07:54:04;26.85;46.47
65985;HTU21D;52748;51.112;5.880;2023-07-08T07:56:30;26.85;46.68
65985;HTU21D;52748;51.112;5.880;2023-07-08T07:58:57;26.85;46.52
65985;HTU21D;52748;51.112;5.880;2023-07-08T08:01:23;26.84;46.59
65985;HTU21D;52748;51.112;5.880;2023-07-08T08:03:49;26.86;46.59
65985;HTU21D;52748;51.112;5.880;2023-07-08T08:06:16;26.84;46.75
65985;HTU21D;52748;51.112;5.880;2023-07-08T08:08:44;26.81;46.90
65985;HTU21D;52748;51.112;5.880;2023-07-08T08:11:11;26.79;47.11
65985;HTU21D;52748;51.112;5.880;2023-07-08T08:13:37;26.77;47.24
65985;HTU21D;52748;51.112;5.880;2023-07-08T08:16:04;26.73;47.31
65985;HTU21D;52748;51.112;5.880;2023-07-08T08:18:30;26.72;47.42
65985;HTU21D;52748;51.112;5.880;2023-07-08T08:20:56;26.70;47.37
65985;HTU21D;52748;51.112;5.880;2023-07-08T08:23:22;26.69;47.42
65985;HTU21D;52748;51.112;5.880;2023-07-08T08:25:50;26.66;47.58
65985;HTU21D;52748;51.112;5.880;2023-07-08T08:28:16;26.65;47.85
65985;HTU21D;52748;51.112;5.880;2023-07-08T08:30:47;26.67;48.09
65985;HTU21D;52748;51.112;5.880;2023-07-08T08:33:13;26.67;48.24
65985;HTU21D;52748;51.112;5.880;2023-07-08T08:35:38;26.67;48.44
65985;HTU21D;52748;51.112;5.880;2023-07-08T08:38:04;26.63;48.40
65985;HTU21D;52748;51.112;5.880;2023-07-08T08:40:32;26.64;48.60
65985;HTU21D;52748;51.112;5.880;2023-07-08T08:43:09;26.63;48.81
65985;HTU21D;52748;51.112;5.880;2023-07-08T08:45:53;26.63;48.92
65985;HTU21D;52748;51.112;5.880;2023-07-08T08:48:24;26.62;49.07
65985;HTU21D;52748;51.112;5.880;2023-07-08T08:50:58;26.62;49.13
65985;HTU21D;52748;51.112;5.880;2023-07-08T08:53:27;26.63;49.27
65985;HTU21D;52748;51.112;5.880;2023-07-08T08:56:23;26.63;49.21
65985;HTU21D;52748;51.112;5.880;2023-07-08T09:01:38;26.64;49.05
65985;HTU21D;52748;51.112;5.880;2023-07-08T09:04:25;26.62;49.03
65985;HTU21D;52748;51.112;5.880;2023-07-08T09:07:03;26.65;49.14
65985;HTU21D;52748;51.112;5.880;2023-07-08T09:10:01;26.63;49.15
65985;HTU21D;52748;51.112;5.880;2023-07-08T09:12:30;26.63;49.11
65985;HTU21D;52748;51.112;5.880;2023-07-08T09:14:58;26.63;49.15
65985;HTU21D;52748;51.112;5.880;2023-07-08T09:17:31;26.63;49.21
65985;HTU21D;52748;51.112;5.880;2023-07-08T09:22:36;26.64;49.31
65985;HTU21D;52748;51.112;5.880;2023-07-08T09:25:31;26.61;49.29
65985;HTU21D;52748;51.112;5.880;2023-07-08T09:27:58;26.58;49.40
65985;HTU21D;52748;51.112;5.880;2023-07-08T09:30:26;26.58;49.39
65985;HTU21D;52748;51.112;5.880;2023-07-08T09:32:54;26.60;49.45
65985;HTU21D;52748;51.112;5.880;2023-07-08T09:35:26;26.60;49.60
65985;HTU21D;52748;51.112;5.880;2023-07-08T09:37:54;26.58;50.11
65985;HTU21D;52748;51.112;5.880;2023-07-08T09:40:32;26.58;50.45
65985;HTU21D;52748;51.112;5.880;2023-07-08T09:43:04;26.57;50.48
65985;HTU21D;52748;51.112;5.880;2023-07-08T09:45:44;26.57;50.50
65985;HTU21D;52748;51.112;5.880;2023-07-08T09:48:23;26.55;50.05
65985;HTU21D;52748;51.112;5.880;2023-07-08T09:50:52;26.55;50.24
65985;HTU21D;52748;51.112;5.880;2023-07-08T09:53:18;26.55;49.94
65985;HTU21D;52748;51.112;5.880;2023-07-08T09:55:44;26.53;50.67
65985;HTU21D;52748;51.112;5.880;2023-07-08T09:58:27;26.53;50.29
65985;HTU21D;52748;51.112;5.880;2023-07-08T10:00:58;26.52;50.56
65985;HTU21D;52748;51.112;5.880;2023-07-08T10:03:32;26.52;51.21
65985;HTU21D;52748;51.112;5.880;2023-07-08T10:06:18;26.50;51.73
65985;HTU21D;52748;51.112;5.880;2023-07-08T10:08:46;26.49;51.43
65985;HTU21D;52748;51.112;5.880;2023-07-08T10:11:27;26.50;51.61
65985;HTU21D;52748;51.112;5.880;2023-07-08T10:14:04;26.49;51.60
65985;HTU21D;52748;51.112;5.880;2023-07-08T10:16:34;26.48;51.48
65985;HTU21D;52748;51.112;5.880;2023-07-08T10:19:04;26.48;51.72
65985;HTU21D;52748;51.112;5.880;2023-07-08T10:24:29;26.51;51.78
65985;HTU21D;52748;51.112;5.880;2023-07-08T10:27:15;26.50;51.74
65985;HTU21D;52748;51.112;5.880;2023-07-08T10:32:41;26.49;51.88
65985;HTU21D;52748;51.112;5.880;2023-07-08T10:35:17;26.48;51.96
65985;HTU21D;52748;51.112;5.880;2023-07-08T10:40:49;26.48;52.33
65985;HTU21D;52748;51.112;5.880;2023-07-08T10:52:34;26.48;52.45
65985;HTU21D;52748;51.112;5.880;2023-07-08T10:55:00;26.48;52.46
65985;HTU21D;52748;51.112;5.880;2023-07-08T10:57:43;26.48;52.43
65985;HTU21D;52748;51.112;5.880;2023-07-08T11:00:35;26.49;52.46
65985;HTU21D;52748;51.112;5.880;2023-07-08T11:05:46;26.48;53.33
65985;HTU21D;52748;51.112;5.880;2023-07-08T11:08:24;26.47;53.60
65985;HTU21D;52748;51.112;5.880;2023-07-08T11:10:56;26.46;53.57
65985;HTU21D;52748;51.112;5.880;2023-07-08T11:13:28;26.46;53.72
65985;HTU21D;52748;51.112;5.880;2023-07-08T11:16:21;26.43;53.66
65985;HTU21D;52748;51.112;5.880;2023-07-08T11:26:53;26.42;53.45
65985;HTU21D;52748;51.112;5.880;2023-07-08T11:29:25;26.45;53.45
65985;HTU21D;52748;51.112;5.880;2023-07-08T11:31:55;26.45;53.44
65985;HTU21D;52748;51.112;5.880;2023-07-08T11:34:22;26.45;53.54
65985;HTU21D;52748;51.112;5.880;2023-07-08T11:36:51;26.47;53.51
65985;HTU21D;52748;51.112;5.880;2023-07-08T11:39:42;26.49;53.65
65985;HTU21D;52748;51.112;5.880;2023-07-08T11:42:25;26.50;53.27
65985;HTU21D;52748;51.112;5.880;2023-07-08T11:44:59;26.52;53.20
65985;HTU21D;52748;51.112;5.880;2023-07-08T11:47:38;26.54;53.02
65985;HTU21D;52748;51.112;5.880;2023-07-08T11:52:54;26.58;53.21
65985;HTU21D;52748;51.112;5.880;2023-07-08T11:55:24;26.57;53.46
65985;HTU21D;52748;51.112;5.880;2023-07-08T11:57:54;26.56;53.39
65985;HTU21D;52748;51.112;5.880;2023-07-08T12:00:24;26.55;53.32
65985;HTU21D;52748;51.112;5.880;2023-07-08T12:02:57;26.54;53.14
65985;HTU21D;52748;51.112;5.880;2023-07-08T12:05:41;26.55;52.94
65985;HTU21D;52748;51.112;5.880;2023-07-08T12:08:15;26.54;52.93
65985;HTU21D;52748;51.112;5.880;2023-07-08T12:10:48;26.54;52.86
65985;HTU21D;52748;51.112;5.880;2023-07-08T12:13:18;26.55;52.82
65985;HTU21D;52748;51.112;5.880;2023-07-08T12:15:45;26.54;52.85
65985;HTU21D;52748;51.112;5.880;2023-07-08T12:18:22;26.54;52.78
65985;HTU21D;52748;51.112;5.880;2023-07-08T12:20:59;26.54;53.11
65985;HTU21D;52748;51.112;5.880;2023-07-08T12:23:28;26.53;52.98
65985;HTU21D;52748;51.112;5.880;2023-07-08T12:25:56;26.54;52.78
65985;HTU21D;52748;51.112;5.880;2023-07-08T12:28:24;26.55;52.51
65985;HTU21D;52748;51.112;5.880;2023-07-08T12:30:51;26.56;52.33
65985;HTU21D;52748;51.112;5.880;2023-07-08T12:33:32;26.55;52.37
65985;HTU21D;52748;51.112;5.880;2023-07-08T12:36:02;26.56;52.45
65985;HTU21D;52748;51.112;5.880;2023-07-08T12:38:33;26.56;52.56
65985;HTU21D;52748;51.112;5.880;2023-07-08T12:41:09;26.57;52.66
65985;HTU21D;52748;51.112;5.880;2023-07-08T12:43:35;26.57;52.82
65985;HTU21D;52748;51.112;5.880;2023-07-08T12:46:02;26.60;52.96
65985;HTU21D;52748;51.112;5.880;2023-07-08T12:48:40;26.62;53.04
65985;HTU21D;52748;51.112;5.880;2023-07-08T12:51:12;26.62;53.15
65985;HTU21D;52748;51.112;5.880;2023-07-08T12:53:38;26.63;53.32
65985;HTU21D;52748;51.112;5.880;2023-07-08T12:56:05;26.64;53.48
65985;HTU21D;52748;51.112;5.880;2023-07-08T12:58:36;26.64;53.62
65985;HTU21D;52748;51.112;5.880;2023-07-08T13:01:06;26.64;53.84
65985;HTU21D;52748;51.112;5.880;2023-07-08T13:03:39;26.64;54.08
65985;HTU21D;52748;51.112;5.880;2023-07-08T13:06:10;26.65;53.89
65985;HTU21D;52748;51.112;5.880;2023-07-08T13:08:38;26.63;53.68
65985;HTU21D;52748;51.112;5.880;2023-07-08T13:11:06;26.64;53.36
65985;HTU21D;52748;51.112;5.880;2023-07-08T13:13:47;26.63;53.14
65985;HTU21D;52748;51.112;5.880;2023-07-08T13:16:14;26.63;53.00
65985;HTU21D;52748;51.112;5.880;2023-07-08T13:18:42;26.63;52.86
65985;HTU21D;52748;51.112;5.880;2023-07-08T13:21:14;26.63;52.71
65985;HTU21D;52748;51.112;5.880;2023-07-08T13:23:42;26.63;52.65
65985;HTU21D;52748;51.112;5.880;2023-07-08T13:26:17;26.63;52.74
65985;HTU21D;52748;51.112;5.880;2023-07-08T13:28:44;26.64;52.94
65985;HTU21D;52748;51.112;5.880;2023-07-08T13:31:22;26.63;53.04
65985;HTU21D;52748;51.112;5.880;2023-07-08T13:33:50;26.63;53.21
65985;HTU21D;52748;51.112;5.880;2023-07-08T13:36:23;26.64;53.27
65985;HTU21D;52748;51.112;5.880;2023-07-08T13:38:51;26.64;54.01
65985;HTU21D;52748;51.112;5.880;2023-07-08T13:41:22;26.65;54.23
65985;HTU21D;52748;51.112;5.880;2023-07-08T13:43:50;26.65;54.32
65985;HTU21D;52748;51.112;5.880;2023-07-08T13:49:02;26.68;54.65
65985;HTU21D;52748;51.112;5.880;2023-07-08T13:51:31;26.68;54.83
65985;HTU21D;52748;51.112;5.880;2023-07-08T13:54:13;26.69;54.65
65985;HTU21D;52748;51.112;5.880;2023-07-08T13:56:41;26.69;54.76
65985;HTU21D;52748;51.112;5.880;2023-07-08T13:59:14;26.69;54.94
65985;HTU21D;52748;51.112;5.880;2023-07-08T14:01:43;26.67;55.09
65985;HTU21D;52748;51.112;5.880;2023-07-08T14:04:17;26.66;55.45
65985;HTU21D;52748;51.112;5.880;2023-07-08T14:06:43;26.66;55.60
65985;HTU21D;52748;51.112;5.880;2023-07-08T14:09:14;26.66;55.78
65985;HTU21D;52748;51.112;5.880;2023-07-08T14:11:42;26.65;55.84
65985;HTU21D;52748;51.112;5.880;2023-07-08T14:14:09;26.67;55.81
65985;HTU21D;52748;51.112;5.880;2023-07-08T14:16:40;26.67;55.91
65985;HTU21D;52748;51.112;5.880;2023-07-08T14:19:26;26.65;55.90
65985;HTU21D;52748;51.112;5.880;2023-07-08T14:21:58;26.66;55.90
65985;HTU21D;52748;51.112;5.880;2023-07-08T14:24:25;26.67;55.58
65985;HTU21D;52748;51.112;5.880;2023-07-08T14:26:52;26.67;55.23
65985;HTU21D;52748;51.112;5.880;2023-07-08T14:29:18;26.68;54.89
65985;HTU21D;52748;51.112;5.880;2023-07-08T14:31:44;26.69;54.76
65985;HTU21D;52748;51.112;5.880;2023-07-08T14:34:27;26.70;54.62
65985;HTU21D;52748;51.112;5.880;2023-07-08T14:36:53;26.70;54.52
65985;HTU21D;52748;51.112;5.880;2023-07-08T14:39:20;26.68;54.54
65985;HTU21D;52748;51.112;5.880;2023-07-08T14:41:48;26.68;54.46
65985;HTU21D;52748;51.112;5.880;2023-07-08T14:44:31;26.67;54.53
65985;HTU21D;52748;51.112;5.880;2023-07-08T14:46:57;26.69;54.64
65985;HTU21D;52748;51.112;5.880;2023-07-08T14:49:24;26.70;54.40
65985;HTU21D;52748;51.112;5.880;2023-07-08T14:51:51;26.71;54.38
65985;HTU21D;52748;51.112;5.880;2023-07-08T14:54:18;26.71;54.34
65985;HTU21D;52748;51.112;5.880;2023-07-08T14:56:45;26.72;54.27
65985;HTU21D;52748;51.112;5.880;2023-07-08T14:59:16;26.72;54.22
65985;HTU21D;52748;51.112;5.880;2023-07-08T15:01:44;26.75;54.04
65985;HTU21D;52748;51.112;5.880;2023-07-08T15:04:12;26.73;54.11
65985;HTU21D;52748;51.112;5.880;2023-07-08T15:06:38;26.71;54.14
65985;HTU21D;52748;51.112;5.880;2023-07-08T15:09:05;26.72;54.05
65985;HTU21D;52748;51.112;5.880;2023-07-08T15:11:31;26.73;53.97
65985;HTU21D;52748;51.112;5.880;2023-07-08T15:13:59;26.73;54.01
65985;HTU21D;52748;51.112;5.880;2023-07-08T15:16:25;26.75;53.91
65985;HTU21D;52748;51.112;5.880;2023-07-08T15:18:51;26.75;53.78
65985;HTU21D;52748;51.112;5.880;2023-07-08T15:21:17;26.77;53.57
65985;HTU21D;52748;51.112;5.880;2023-07-08T15:23:43;26.76;53.44
65985;HTU21D;52748;51.112;5.880;2023-07-08T15:26:10;26.73;53.32
65985;HTU21D;52748;51.112;5.880;2023-07-08T15:31:03;26.75;53.51
65985;HTU21D;52748;51.112;5.880;2023-07-08T15:33:29;26.75;53.46
65985;HTU21D;52748;51.112;5.880;2023-07-08T15:35:54;26.73;53.43
65985;HTU21D;52748;51.112;5.880;2023-07-08T15:38:20;26.75;53.46
65985;HTU21D;52748;51.112;5.880;2023-07-08T15:40:46;26.76;53.46
65985;HTU21D;52748;51.112;5.880;2023-07-08T15:43:14;26.77;53.38
65985;HTU21D;52748;51.112;5.880;2023-07-08T15:45:41;26.77;53.36
65985;HTU21D;52748;51.112;5.880;2023-07-08T15:48:17;26.78;53.30
65985;HTU21D;52748;51.112;5.880;2023-07-08T15:50:44;26.79;53.04
65985;HTU21D;52748;51.112;5.880;2023-07-08T15:53:15;26.81;53.06
65985;HTU21D;52748;51.112;5.880;2023-07-08T15:55:44;26.82;53.78
65985;HTU21D;52748;51.112;5.880;2023-07-08T15:58:26;26.82;53.76
65985;HTU21D;52748;51.112;5.880;2023-07-08T16:00:53;26.84;53.12
65985;HTU21D;52748;51.112;5.880;2023-07-08T16:03:26;26.86;52.61
65985;HTU21D;52748;51.112;5.880;2023-07-08T16:05:53;26.92;52.11
65985;HTU21D;52748;51.112;5.880;2023-07-08T16:08:20;26.97;52.05
65985;HTU21D;52748;51.112;5.880;2023-07-08T16:10:54;26.99;51.96
65985;HTU21D;52748;51.112;5.880;2023-07-08T16:13:28;26.99;51.98
65985;HTU21D;52748;51.112;5.880;2023-07-08T16:15:54;27.01;52.18